Portada
METAR-TAF:

METAR-TAF

Aeroports :

Wattisham, Anglaterra

latitud: 52-07N, longitud: 000-58E, altitud: 87 m

Observació

L'informe es va fer fa 43 minuts, a les 04:50 UTC
Vent 10 kt del Sud
Temperatura 8°C
Humitat 93%
Pressió 1009 hPa
Visibilitat: 3700 m
pluja

METAR: EGUW 230450Z AUTO 19010KT 3700 RA BKN002/// 08/07 Q1009

Hora: 05:33 (05:33 UTC)


TAF: manca

Observacions i pronòstics meteorològics de més de 4000 aeroports (METAR i TAF).

Les estacions disponibles són els punts grocs i vermells al mapa.

Posi el ratolí al punt desitjat per veure el nom de l'estació.

Feu clic per veure les observacions i els pronòstics meteorològics.

Per canviar el mapa: feu clic els botons verds amb una creu de color negre per apropar; al botó verd amb un guió per allunyar la imatge; o en les fletxes verdes per a mapes adjacents.


METAR-TAF: